Hawley, PA (18428)

1:18 PM EST on December 08, 2016 (GMT -0500)
Circle Drive | | Change Station

Elev 935 ft 41.47 °N, 75.13 °W | Updated 20 seconds ago

Partly Cloudy
Partly Cloudy
36.3 °F
Feels Like 34 °F
N
3.1
Wind Variable Wind from WNW
Gusts 6.8 mph

Today
High -- | Low -- °F
--% Chance of Precip.
Yesterday
High -- | Low -- °F
Precip. -- in
Pressure 29.83 in
Visibility 10.0 miles
Clouds Few 3600 ft
Windchill 34 °F
Dew Point 24 °F
Humidity 62%
Rainfall Not available.
Snow Depth Not available.
7:14 AM 4:30 PM
Waxing Gibbous, 65% visible
METAR KMSV 081815Z AUTO 27014G21KT 10SM FEW036 02/M06 A2983 RMK AO1
Pressure 29.83 in
Visibility 10.0 miles
Clouds Few 3600 ft
Windchill 34 °F
Dew Point 24 °F
Humidity 62%
Rainfall Not available.
Snow Depth Not available.
7:14 AM 4:30 PM
Waxing Gibbous, 65% visible
METAR KMSV 081815Z AUTO 27014G21KT 10SM FEW036 02/M06 A2983 RMK AO1

10-Day Weather Forecast

Almanac

Astronomy

Dec. 08, 2016 Rise Set
Actual Time
Civil Twilight
Nautical Twilight
Astronomical Twilight
Moon
Length of Visible Light
Length of Day
Tomorrow will be .
, % of the Moon is Illuminated

Today's Extremes

State Highs State Lows

Community

WunderPhotos

Upload Photos

1,956,277 photos uploaded!

WunderBlog® & News

Nearby

Air Quality

  Air Quality AQ Index Pollutant
Not available.

Snow Depth

Station Depth Elevation

Earthquake Activity

City Distance Mag. Time & Date
Minimum magnitude displayed is 2.5.

Coastal Water Temperatures

Place Temperature

Stations

Nearby Weather Stations

Station Location Temp. Windchill Dew Point Humidity Wind Precip. Elev Updated Type
                   

Watches & Warnings

There are currently no watches in effect.